sensor_id;sensor_type;location;lat;lon;timestamp;pressure;altitude;pressure_sealevel;temperature;humidity
70407;BME280;57821;52.202;0.154;2024-02-26T00:00:46;99992.63;;;6.28;83.06
70407;BME280;57821;52.202;0.154;2024-02-26T00:03:13;99985.75;;;6.30;83.26
70407;BME280;57821;52.202;0.154;2024-02-26T00:05:40;99992.63;;;6.31;82.36
70407;BME280;57821;52.202;0.154;2024-02-26T00:08:07;99994.34;;;6.32;82.28
70407;BME280;57821;52.202;0.154;2024-02-26T00:10:34;99991.78;;;6.32;82.66
70407;BME280;57821;52.202;0.154;2024-02-26T00:13:01;100000.34;;;6.36;82.40
70407;BME280;57821;52.202;0.154;2024-02-26T00:15:27;99994.34;;;6.35;82.92
70407;BME280;57821;52.202;0.154;2024-02-26T00:17:54;99997.78;;;6.37;82.87
70407;BME280;57821;52.202;0.154;2024-02-26T00:20:21;100001.22;;;6.36;82.57
70407;BME280;57821;52.202;0.154;2024-02-26T00:22:48;100009.81;;;6.38;82.74
70407;BME280;57821;52.202;0.154;2024-02-26T00:25:14;100009.81;;;6.38;83.07
70407;BME280;57821;52.202;0.154;2024-02-26T00:27:41;100012.41;;;6.40;82.63
70407;BME280;57821;52.202;0.154;2024-02-26T00:30:10;100023.56;;;6.40;83.46
70407;BME280;57821;52.202;0.154;2024-02-26T00:32:38;100021.81;;;6.42;83.32
70407;BME280;57821;52.202;0.154;2024-02-26T00:35:06;100027.84;;;6.46;82.56
70407;BME280;57821;52.202;0.154;2024-02-26T00:37:32;100024.41;;;6.47;82.34
70407;BME280;57821;52.202;0.154;2024-02-26T00:39:59;100019.25;;;6.47;83.26
70407;BME280;57821;52.202;0.154;2024-02-26T00:42:26;100023.56;;;6.46;82.96
70407;BME280;57821;52.202;0.154;2024-02-26T00:44:52;100035.59;;;6.50;83.16
70407;BME280;57821;52.202;0.154;2024-02-26T00:47:19;100037.28;;;6.48;82.93
70407;BME280;57821;52.202;0.154;2024-02-26T00:49:46;100048.47;;;6.50;83.05
70407;BME280;57821;52.202;0.154;2024-02-26T00:52:13;100051.03;;;6.50;83.32
70407;BME280;57821;52.202;0.154;2024-02-26T00:54:39;100044.16;;;6.49;82.36
70407;BME280;57821;52.202;0.154;2024-02-26T00:57:06;100057.91;;;6.51;82.46
70407;BME280;57821;52.202;0.154;2024-02-26T00:59:33;100053.63;;;6.52;82.06
70407;BME280;57821;52.202;0.154;2024-02-26T01:01:59;100059.59;;;6.52;82.67
70407;BME280;57821;52.202;0.154;2024-02-26T01:04:28;100063.91;;;6.52;82.53
70407;BME280;57821;52.202;0.154;2024-02-26T01:06:55;100064.75;;;6.52;82.37
70407;BME280;57821;52.202;0.154;2024-02-26T01:09:22;100062.19;;;6.52;82.66
70407;BME280;57821;52.202;0.154;2024-02-26T01:11:49;100074.22;;;6.52;82.54
70407;BME280;57821;52.202;0.154;2024-02-26T01:14:15;100078.50;;;6.51;82.09
70407;BME280;57821;52.202;0.154;2024-02-26T01:16:42;100081.09;;;6.51;82.62
70407;BME280;57821;52.202;0.154;2024-02-26T01:19:09;100076.78;;;6.50;82.66
70407;BME280;57821;52.202;0.154;2024-02-26T01:21:36;100087.94;;;6.48;81.59
70407;BME280;57821;52.202;0.154;2024-02-26T01:24:03;100095.66;;;6.48;nan
70407;BME280;57821;52.202;0.154;2024-02-26T01:26:30;100102.53;;;6.49;82.21
70407;BME280;57821;52.202;0.154;2024-02-26T01:28:57;100100.81;;;6.46;82.04
70407;BME280;57821;52.202;0.154;2024-02-26T01:31:24;100113.69;;;6.48;81.87
70407;BME280;57821;52.202;0.154;2024-02-26T01:33:50;100105.97;;;6.46;82.67
70407;BME280;57821;52.202;0.154;2024-02-26T01:36:17;100124.84;;;6.48;81.71
70407;BME280;57821;52.202;0.154;2024-02-26T01:38:44;100124.84;;;6.48;82.77
70407;BME280;57821;52.202;0.154;2024-02-26T01:41:11;100130.00;;;6.48;82.22
70407;BME280;57821;52.202;0.154;2024-02-26T01:43:39;100136.88;;;6.49;81.90
70407;BME280;57821;52.202;0.154;2024-02-26T01:46:11;100133.44;;;6.46;81.63
70407;BME280;57821;52.202;0.154;2024-02-26T01:48:41;100142.88;;;6.48;81.30
70407;BME280;57821;52.202;0.154;2024-02-26T01:51:10;100143.75;;;6.46;81.96
70407;BME280;57821;52.202;0.154;2024-02-26T01:53:38;100136.00;;;6.43;81.67
70407;BME280;57821;52.202;0.154;2024-02-26T01:56:05;100148.03;;;6.45;81.74
70407;BME280;57821;52.202;0.154;2024-02-26T01:58:32;100153.16;;;6.42;80.87
70407;BME280;57821;52.202;0.154;2024-02-26T02:01:00;100157.47;;;6.43;81.46
70407;BME280;57821;52.202;0.154;2024-02-26T02:03:30;100156.59;;;6.40;81.23
70407;BME280;57821;52.202;0.154;2024-02-26T02:05:57;100164.28;;;6.35;80.76
70407;BME280;57821;52.202;0.154;2024-02-26T02:08:24;100172.03;;;6.34;81.40
70407;BME280;57821;52.202;0.154;2024-02-26T02:10:51;100172.00;;;6.31;81.59
70407;BME280;57821;52.202;0.154;2024-02-26T02:13:18;100172.84;;;6.28;80.93
70407;BME280;57821;52.202;0.154;2024-02-26T02:15:44;100177.13;;;6.26;81.53
70407;BME280;57821;52.202;0.154;2024-02-26T02:18:11;100178.81;;;6.24;81.20
70407;BME280;57821;52.202;0.154;2024-02-26T02:20:38;100180.56;;;6.22;80.97
70407;BME280;57821;52.202;0.154;2024-02-26T02:23:05;100181.41;;;6.21;81.56
70407;BME280;57821;52.202;0.154;2024-02-26T02:25:32;100190.81;;;6.19;81.30
70407;BME280;57821;52.202;0.154;2024-02-26T02:27:58;100183.94;;;6.18;81.10
70407;BME280;57821;52.202;0.154;2024-02-26T02:30:29;100193.41;;;6.16;81.19
70407;BME280;57821;52.202;0.154;2024-02-26T02:32:58;100200.28;;;6.17;81.34
70407;BME280;57821;52.202;0.154;2024-02-26T02:35:25;100201.97;;;6.15;80.74
70407;BME280;57821;52.202;0.154;2024-02-26T02:37:52;100202.81;;;6.15;80.67
70407;BME280;57821;52.202;0.154;2024-02-26T02:40:19;100211.38;;;6.13;80.43
70407;BME280;57821;52.202;0.154;2024-02-26T02:42:46;100211.38;;;6.13;80.26
70407;BME280;57821;52.202;0.154;2024-02-26T02:45:13;100212.25;;;6.13;80.29
70407;BME280;57821;52.202;0.154;2024-02-26T02:47:40;100222.53;;;6.12;80.46
70407;BME280;57821;52.202;0.154;2024-02-26T02:50:07;100222.53;;;6.12;80.69
70407;BME280;57821;52.202;0.154;2024-02-26T02:52:33;100228.53;;;6.09;80.89
70407;BME280;57821;52.202;0.154;2024-02-26T02:55:01;100232.81;;;6.09;80.04
70407;BME280;57821;52.202;0.154;2024-02-26T02:57:29;100227.63;;;6.06;80.83
70407;BME280;57821;52.202;0.154;2024-02-26T02:59:57;100231.94;;;6.04;80.14
70407;BME280;57821;52.202;0.154;2024-02-26T03:02:23;100239.66;;;6.04;80.20
70407;BME280;57821;52.202;0.154;2024-02-26T03:04:53;100242.22;;;6.07;80.39
70407;BME280;57821;52.202;0.154;2024-02-26T03:07:19;100247.38;;;6.07;79.59
70407;BME280;57821;52.202;0.154;2024-02-26T03:09:47;100255.09;;;6.05;80.40
70407;BME280;57821;52.202;0.154;2024-02-26T03:12:14;100261.97;;;6.05;79.88
70407;BME280;57821;52.202;0.154;2024-02-26T03:14:40;100260.25;;;6.04;80.01
70407;BME280;57821;52.202;0.154;2024-02-26T03:17:07;100283.41;;;6.05;79.54
70407;BME280;57821;52.202;0.154;2024-02-26T03:19:34;100285.13;;;6.05;79.18
70407;BME280;57821;52.202;0.154;2024-02-26T03:22:01;100288.56;;;6.05;80.04
70407;BME280;57821;52.202;0.154;2024-02-26T03:24:28;100285.13;;;6.05;79.65
70407;BME280;57821;52.202;0.154;2024-02-26T03:26:55;100290.28;;;6.05;79.90
70407;BME280;57821;52.202;0.154;2024-02-26T03:29:22;100298.84;;;6.04;80.38
70407;BME280;57821;52.202;0.154;2024-02-26T03:31:48;100295.41;;;6.03;79.37
70407;BME280;57821;52.202;0.154;2024-02-26T03:34:15;100306.56;;;6.04;80.06
70407;BME280;57821;52.202;0.154;2024-02-26T03:36:44;100318.56;;;6.03;79.17
70407;BME280;57821;52.202;0.154;2024-02-26T03:39:10;100315.16;;;6.04;79.11
70407;BME280;57821;52.202;0.154;2024-02-26T03:41:37;100315.13;;;6.03;79.81
70407;BME280;57821;52.202;0.154;2024-02-26T03:44:04;100325.41;;;6.01;79.49
70407;BME280;57821;52.202;0.154;2024-02-26T03:46:31;100330.56;;;6.03;78.75
70407;BME280;57821;52.202;0.154;2024-02-26T03:48:58;100337.41;;;6.01;79.61
70407;BME280;57821;52.202;0.154;2024-02-26T03:51:24;100335.72;;;6.00;79.55
70407;BME280;57821;52.202;0.154;2024-02-26T03:53:51;100347.69;;;6.01;79.96
70407;BME280;57821;52.202;0.154;2024-02-26T03:56:18;100355.44;;;5.99;78.58
70407;BME280;57821;52.202;0.154;2024-02-26T03:58:45;100363.16;;;6.01;79.07
70407;BME280;57821;52.202;0.154;2024-02-26T04:01:12;100364.88;;;5.99;79.06
70407;BME280;57821;52.202;0.154;2024-02-26T04:03:38;100364.84;;;6.00;79.03
70407;BME280;57821;52.202;0.154;2024-02-26T04:06:08;100369.16;;;6.00;79.20
70407;BME280;57821;52.202;0.154;2024-02-26T04:08:37;100380.31;;;6.02;79.25
70407;BME280;57821;52.202;0.154;2024-02-26T04:11:04;100388.00;;;6.00;78.58
70407;BME280;57821;52.202;0.154;2024-02-26T04:13:38;100389.75;;;6.01;78.96
70407;BME280;57821;52.202;0.154;2024-02-26T04:16:05;100404.38;;;6.04;78.61
70407;BME280;57821;52.202;0.154;2024-02-26T04:18:32;100405.22;;;6.06;78.38
70407;BME280;57821;52.202;0.154;2024-02-26T04:20:59;100412.94;;;6.06;77.95
70407;BME280;57821;52.202;0.154;2024-02-26T04:23:26;100416.41;;;6.08;77.99
70407;BME280;57821;52.202;0.154;2024-02-26T04:25:53;100420.72;;;6.09;78.28
70407;BME280;57821;52.202;0.154;2024-02-26T04:28:20;100435.28;;;6.08;77.27
70407;BME280;57821;52.202;0.154;2024-02-26T04:30:52;100427.56;;;6.05;78.18
70407;BME280;57821;52.202;0.154;2024-02-26T04:33:19;100442.97;;;6.07;77.85
70407;BME280;57821;52.202;0.154;2024-02-26T04:35:46;100443.81;;;6.06;77.83
70407;BME280;57821;52.202;0.154;2024-02-26T04:38:13;100443.81;;;6.06;77.75
70407;BME280;57821;52.202;0.154;2024-02-26T04:40:39;100459.28;;;6.06;77.02
70407;BME280;57821;52.202;0.154;2024-02-26T04:43:06;100461.84;;;6.04;76.83
70407;BME280;57821;52.202;0.154;2024-02-26T04:45:33;100461.84;;;6.04;77.14
70407;BME280;57821;52.202;0.154;2024-02-26T04:47:59;100473.84;;;6.04;77.04
70407;BME280;57821;52.202;0.154;2024-02-26T04:50:27;100474.72;;;6.04;76.29
70407;BME280;57821;52.202;0.154;2024-02-26T04:52:53;100479.88;;;6.04;76.85
70407;BME280;57821;52.202;0.154;2024-02-26T04:55:20;100485.88;;;6.05;76.12
70407;BME280;57821;52.202;0.154;2024-02-26T04:57:47;100497.03;;;6.04;76.27
70407;BME280;57821;52.202;0.154;2024-02-26T05:00:14;100511.59;;;6.03;75.90
70407;BME280;57821;52.202;0.154;2024-02-26T05:02:40;100502.16;;;6.02;75.78
70407;BME280;57821;52.202;0.154;2024-02-26T05:05:08;100508.97;;;6.00;75.96
70407;BME280;57821;52.202;0.154;2024-02-26T05:07:40;100515.88;;;6.00;75.29
70407;BME280;57821;52.202;0.154;2024-02-26T05:10:08;100516.69;;;6.00;75.83
70407;BME280;57821;52.202;0.154;2024-02-26T05:12:34;100514.06;;;5.96;75.75
70407;BME280;57821;52.202;0.154;2024-02-26T05:15:03;100523.53;;;5.97;75.36
70407;BME280;57821;52.202;0.154;2024-02-26T05:17:30;100523.50;;;5.95;74.68
70407;BME280;57821;52.202;0.154;2024-02-26T05:19:56;100533.81;;;5.94;75.77
70407;BME280;57821;52.202;0.154;2024-02-26T05:22:23;100538.09;;;5.95;75.06
70407;BME280;57821;52.202;0.154;2024-02-26T05:24:50;100536.38;;;5.94;75.76
70407;BME280;57821;52.202;0.154;2024-02-26T05:27:18;100547.50;;;5.94;76.29
70407;BME280;57821;52.202;0.154;2024-02-26T05:29:44;100553.53;;;5.95;76.26
70407;BME280;57821;52.202;0.154;2024-02-26T05:32:12;100553.53;;;5.95;76.56
70407;BME280;57821;52.202;0.154;2024-02-26T05:34:38;100551.81;;;5.94;76.77
70407;BME280;57821;52.202;0.154;2024-02-26T05:37:06;100564.69;;;5.94;76.76
70407;BME280;57821;52.202;0.154;2024-02-26T05:39:34;100565.53;;;5.93;76.75
70407;BME280;57821;52.202;0.154;2024-02-26T05:42:01;100570.69;;;5.93;76.57
70407;BME280;57821;52.202;0.154;2024-02-26T05:44:27;100579.22;;;5.92;77.09
70407;BME280;57821;52.202;0.154;2024-02-26T05:46:54;100587.81;;;5.92;76.96
70407;BME280;57821;52.202;0.154;2024-02-26T05:49:22;100589.53;;;5.92;77.80
70407;BME280;57821;52.202;0.154;2024-02-26T05:51:49;100587.78;;;5.91;77.74
70407;BME280;57821;52.202;0.154;2024-02-26T05:54:16;100589.47;;;5.89;77.16
70407;BME280;57821;52.202;0.154;2024-02-26T05:56:42;100597.22;;;5.90;77.35
70407;BME280;57821;52.202;0.154;2024-02-26T05:59:09;100594.63;;;5.89;76.91
70407;BME280;57821;52.202;0.154;2024-02-26T06:01:36;100602.34;;;5.87;78.07
70407;BME280;57821;52.202;0.154;2024-02-26T06:04:03;100597.09;;;5.84;77.14
70407;BME280;57821;52.202;0.154;2024-02-26T06:06:30;100620.22;;;5.83;77.12
70407;BME280;57821;52.202;0.154;2024-02-26T06:08:56;100620.25;;;5.81;77.18
70407;BME280;57821;52.202;0.154;2024-02-26T06:11:23;100621.94;;;5.81;77.65
70407;BME280;57821;52.202;0.154;2024-02-26T06:13:50;100616.75;;;5.77;77.29
70407;BME280;57821;52.202;0.154;2024-02-26T06:16:17;100638.19;;;5.78;77.56
70407;BME280;57821;52.202;0.154;2024-02-26T06:18:43;100641.63;;;5.78;76.68
70407;BME280;57821;52.202;0.154;2024-02-26T06:21:11;100641.59;;;5.77;76.85
70407;BME280;57821;52.202;0.154;2024-02-26T06:23:38;100654.47;;;5.75;77.15
70407;BME280;57821;52.202;0.154;2024-02-26T06:26:06;100662.16;;;5.74;77.47
70407;BME280;57821;52.202;0.154;2024-02-26T06:28:33;100669.00;;;5.73;77.67
70407;BME280;57821;52.202;0.154;2024-02-26T06:31:02;100667.28;;;5.72;76.93
70407;BME280;57821;52.202;0.154;2024-02-26T06:33:29;100675.00;;;5.72;77.07
70407;BME280;57821;52.202;0.154;2024-02-26T06:35:56;100675.78;;;5.68;77.64
70407;BME280;57821;52.202;0.154;2024-02-26T06:38:23;100683.53;;;5.70;76.76
70407;BME280;57821;52.202;0.154;2024-02-26T06:40:50;100687.75;;;5.65;77.23
70407;BME280;57821;52.202;0.154;2024-02-26T06:43:16;100698.91;;;5.67;77.05
70407;BME280;57821;52.202;0.154;2024-02-26T06:45:43;100702.31;;;5.64;77.35
70407;BME280;57821;52.202;0.154;2024-02-26T06:48:10;100704.00;;;5.62;76.76
70407;BME280;57821;52.202;0.154;2024-02-26T06:50:36;100703.09;;;5.60;76.94
70407;BME280;57821;52.202;0.154;2024-02-26T06:53:03;100705.66;;;5.60;78.08
70407;BME280;57821;52.202;0.154;2024-02-26T06:55:30;100709.94;;;5.58;77.13
70407;BME280;57821;52.202;0.154;2024-02-26T06:57:57;100710.75;;;5.56;77.11
70407;BME280;57821;52.202;0.154;2024-02-26T07:00:24;100720.13;;;5.54;77.13
70407;BME280;57821;52.202;0.154;2024-02-26T07:02:50;100731.28;;;5.54;77.88
70407;BME280;57821;52.202;0.154;2024-02-26T07:05:17;100735.53;;;5.51;77.02
70407;BME280;57821;52.202;0.154;2024-02-26T07:07:44;100743.28;;;5.52;77.46
70407;BME280;57821;52.202;0.154;2024-02-26T07:10:11;100756.09;;;5.51;77.33
70407;BME280;57821;52.202;0.154;2024-02-26T07:12:39;100759.50;;;5.50;77.15
70407;BME280;57821;52.202;0.154;2024-02-26T07:15:06;100759.50;;;5.50;77.32
70407;BME280;57821;52.202;0.154;2024-02-26T07:17:34;100762.91;;;5.49;77.68
70407;BME280;57821;52.202;0.154;2024-02-26T07:20:01;100769.75;;;5.48;78.00
70407;BME280;57821;52.202;0.154;2024-02-26T07:22:35;100774.91;;;5.48;77.30
70407;BME280;57821;52.202;0.154;2024-02-26T07:25:01;100774.03;;;5.48;77.19
70407;BME280;57821;52.202;0.154;2024-02-26T07:27:28;100777.47;;;5.48;77.70
70407;BME280;57821;52.202;0.154;2024-02-26T07:29:55;100786.91;;;5.48;77.91
70407;BME280;57821;52.202;0.154;2024-02-26T07:32:22;100789.50;;;5.49;78.21
70407;BME280;57821;52.202;0.154;2024-02-26T07:34:49;100796.38;;;5.50;78.12
70407;BME280;57821;52.202;0.154;2024-02-26T07:37:16;100798.09;;;5.50;78.03
70407;BME280;57821;52.202;0.154;2024-02-26T07:39:43;100802.38;;;5.49;78.50
70407;BME280;57821;52.202;0.154;2024-02-26T07:42:09;100806.75;;;5.53;78.89
70407;BME280;57821;52.202;0.154;2024-02-26T07:44:36;100813.59;;;5.54;79.38
70407;BME280;57821;52.202;0.154;2024-02-26T07:47:03;100809.34;;;5.56;79.80
70407;BME280;57821;52.202;0.154;2024-02-26T07:49:30;100817.09;;;5.59;79.30
70407;BME280;57821;52.202;0.154;2024-02-26T07:51:58;100824.84;;;5.61;79.65
70407;BME280;57821;52.202;0.154;2024-02-26T07:54:25;100819.75;;;5.62;80.18
70407;BME280;57821;52.202;0.154;2024-02-26T07:56:52;100831.78;;;5.63;80.56
70407;BME280;57821;52.202;0.154;2024-02-26T07:59:19;100841.22;;;5.64;80.84
70407;BME280;57821;52.202;0.154;2024-02-26T08:01:52;100837.88;;;5.68;80.41
70407;BME280;57821;52.202;0.154;2024-02-26T08:04:24;100849.94;;;5.72;80.66
70407;BME280;57821;52.202;0.154;2024-02-26T08:06:53;100851.66;;;5.73;81.40
70407;BME280;57821;52.202;0.154;2024-02-26T08:09:20;100853.44;;;5.77;80.65
70407;BME280;57821;52.202;0.154;2024-02-26T08:11:47;100863.84;;;5.82;80.67
70407;BME280;57821;52.202;0.154;2024-02-26T08:14:13;100862.19;;;5.86;81.13
70407;BME280;57821;52.202;0.154;2024-02-26T08:16:40;100870.03;;;5.92;81.17
70407;BME280;57821;52.202;0.154;2024-02-26T08:19:07;100865.00;;;5.98;81.60
70407;BME280;57821;52.202;0.154;2024-02-26T08:21:34;100858.16;;;6.01;81.25
70407;BME280;57821;52.202;0.154;2024-02-26T08:24:00;100875.44;;;6.07;81.34
70407;BME280;57821;52.202;0.154;2024-02-26T08:26:27;100878.09;;;6.13;81.84
70407;BME280;57821;52.202;0.154;2024-02-26T08:28:54;100885.06;;;6.18;81.66
70407;BME280;57821;52.202;0.154;2024-02-26T08:31:22;100886.81;;;6.21;81.26
70407;BME280;57821;52.202;0.154;2024-02-26T08:33:50;100884.31;;;6.26;81.25
70407;BME280;57821;52.202;0.154;2024-02-26T08:36:17;100890.41;;;6.31;81.17
70407;BME280;57821;52.202;0.154;2024-02-26T08:38:44;100902.50;;;6.36;80.87
70407;BME280;57821;52.202;0.154;2024-02-26T08:41:10;100907.75;;;6.42;80.78
70407;BME280;57821;52.202;0.154;2024-02-26T08:43:37;100920.72;;;6.48;80.74
70407;BME280;57821;52.202;0.154;2024-02-26T08:46:04;100925.94;;;6.53;80.65
70407;BME280;57821;52.202;0.154;2024-02-26T08:48:30;100919.19;;;6.58;80.68
70407;BME280;57821;52.202;0.154;2024-02-26T08:50:57;100933.00;;;6.63;80.68
70407;BME280;57821;52.202;0.154;2024-02-26T08:53:24;100943.34;;;6.68;80.27
70407;BME280;57821;52.202;0.154;2024-02-26T08:56:06;100940.88;;;6.74;79.75
70407;BME280;57821;52.202;0.154;2024-02-26T08:58:33;100952.09;;;6.77;80.36
70407;BME280;57821;52.202;0.154;2024-02-26T09:01:00;100944.38;;;6.79;80.10
70407;BME280;57821;52.202;0.154;2024-02-26T09:03:28;100951.31;;;6.81;79.73
70407;BME280;57821;52.202;0.154;2024-02-26T09:05:55;100953.09;;;6.88;80.11
70407;BME280;57821;52.202;0.154;2024-02-26T09:08:23;100957.59;;;7.01;81.18
70407;BME280;57821;52.202;0.154;2024-02-26T09:10:50;100958.78;;;7.25;83.17
70407;BME280;57821;52.202;0.154;2024-02-26T09:13:17;100958.34;;;7.59;82.92
70407;BME280;57821;52.202;0.154;2024-02-26T09:15:45;100964.72;;;7.90;81.91
70407;BME280;57821;52.202;0.154;2024-02-26T09:18:12;100965.88;;;8.22;80.94
70407;BME280;57821;52.202;0.154;2024-02-26T09:20:40;100971.38;;;8.56;80.48
70407;BME280;57821;52.202;0.154;2024-02-26T09:23:06;100968.19;;;8.90;79.72
70407;BME280;57821;52.202;0.154;2024-02-26T09:25:33;100977.88;;;9.28;79.90
70407;BME280;57821;52.202;0.154;2024-02-26T09:28:00;100974.59;;;9.68;79.40
70407;BME280;57821;52.202;0.154;2024-02-26T09:30:27;100981.59;;;10.09;77.50
70407;BME280;57821;52.202;0.154;2024-02-26T09:32:54;100992.91;;;10.49;75.59
70407;BME280;57821;52.202;0.154;2024-02-26T09:35:21;100997.25;;;10.76;73.81
70407;BME280;57821;52.202;0.154;2024-02-26T09:37:48;100998.97;;;10.95;71.60
70407;BME280;57821;52.202;0.154;2024-02-26T09:40:16;101009.28;;;11.13;71.36
70407;BME280;57821;52.202;0.154;2024-02-26T09:42:45;101010.13;;;11.26;69.49
70407;BME280;57821;52.202;0.154;2024-02-26T09:45:18;101001.44;;;11.43;68.60
70407;BME280;57821;52.202;0.154;2024-02-26T09:47:47;101016.09;;;11.53;67.82
70407;BME280;57821;52.202;0.154;2024-02-26T09:50:16;101010.88;;;11.63;67.18
70407;BME280;57821;52.202;0.154;2024-02-26T09:52:44;101014.28;;;11.71;66.44
70407;BME280;57821;52.202;0.154;2024-02-26T09:55:14;101023.84;;;11.67;65.16
70407;BME280;57821;52.202;0.154;2024-02-26T09:57:47;101032.53;;;11.63;63.49
70407;BME280;57821;52.202;0.154;2024-02-26T10:00:19;101045.56;;;11.51;62.37
70407;BME280;57821;52.202;0.154;2024-02-26T10:02:47;101044.69;;;11.44;63.55
70407;BME280;57821;52.202;0.154;2024-02-26T10:05:18;101043.00;;;11.27;62.72
70407;BME280;57821;52.202;0.154;2024-02-26T10:07:46;101059.47;;;11.09;62.57
70407;BME280;57821;52.202;0.154;2024-02-26T10:10:17;101049.97;;;10.93;63.25
70407;BME280;57821;52.202;0.154;2024-02-26T10:12:44;101060.34;;;10.84;63.67
70407;BME280;57821;52.202;0.154;2024-02-26T10:15:11;101054.28;;;10.79;63.77
70407;BME280;57821;52.202;0.154;2024-02-26T10:17:38;101058.63;;;10.69;64.33
70407;BME280;57821;52.202;0.154;2024-02-26T10:20:32;101069.81;;;10.54;62.46
70407;BME280;57821;52.202;0.154;2024-02-26T10:23:03;101081.06;;;10.37;62.62
70407;BME280;57821;52.202;0.154;2024-02-26T10:25:31;101074.09;;;10.17;63.13
70407;BME280;57821;52.202;0.154;2024-02-26T10:28:00;101073.16;;;10.14;64.91
70407;BME280;57821;52.202;0.154;2024-02-26T10:30:30;101073.25;;;10.29;65.49
70407;BME280;57821;52.202;0.154;2024-02-26T10:32:57;101078.50;;;10.59;65.63
70407;BME280;57821;52.202;0.154;2024-02-26T10:35:24;101071.56;;;11.01;65.83
70407;BME280;57821;52.202;0.154;2024-02-26T10:37:52;101094.00;;;11.53;65.20
70407;BME280;57821;52.202;0.154;2024-02-26T10:40:20;101088.66;;;12.08;62.75
70407;BME280;57821;52.202;0.154;2024-02-26T10:42:47;101091.91;;;12.51;60.73
70407;BME280;57821;52.202;0.154;2024-02-26T10:45:14;101099.47;;;12.86;59.86
70407;BME280;57821;52.202;0.154;2024-02-26T10:47:42;101117.47;;;13.10;57.77
70407;BME280;57821;52.202;0.154;2024-02-26T10:50:09;101094.94;;;13.15;55.97
70407;BME280;57821;52.202;0.154;2024-02-26T10:52:36;101119.19;;;13.11;56.08
70407;BME280;57821;52.202;0.154;2024-02-26T10:55:05;101115.88;;;12.97;55.37
70407;BME280;57821;52.202;0.154;2024-02-26T10:57:35;101119.47;;;12.78;55.53
70407;BME280;57821;52.202;0.154;2024-02-26T11:00:04;101129.16;;;12.58;56.22
70407;BME280;57821;52.202;0.154;2024-02-26T11:02:36;101134.38;;;12.49;57.81
70407;BME280;57821;52.202;0.154;2024-02-26T11:05:03;101138.75;;;12.41;57.62
70407;BME280;57821;52.202;0.154;2024-02-26T11:07:34;101118.88;;;12.30;55.90
70407;BME280;57821;52.202;0.154;2024-02-26T11:10:03;101141.44;;;12.24;57.08
70407;BME280;57821;52.202;0.154;2024-02-26T11:12:32;101155.34;;;12.20;55.95
70407;BME280;57821;52.202;0.154;2024-02-26T11:14:59;101162.28;;;12.16;55.67
70407;BME280;57821;52.202;0.154;2024-02-26T11:17:28;101157.97;;;12.06;55.16
70407;BME280;57821;52.202;0.154;2024-02-26T11:19:59;101152.81;;;11.97;56.04
70407;BME280;57821;52.202;0.154;2024-02-26T11:22:26;101168.41;;;11.94;56.53
70407;BME280;57821;52.202;0.154;2024-02-26T11:24:54;101152.81;;;11.97;56.58
70407;BME280;57821;52.202;0.154;2024-02-26T11:27:28;101169.28;;;11.99;56.73
70407;BME280;57821;52.202;0.154;2024-02-26T11:29:57;101188.34;;;12.00;56.45
70407;BME280;57821;52.202;0.154;2024-02-26T11:32:27;101187.47;;;11.96;56.21
70407;BME280;57821;52.202;0.154;2024-02-26T11:34:57;101197.91;;;11.87;56.04
70407;BME280;57821;52.202;0.154;2024-02-26T11:37:25;101196.16;;;11.80;55.85
70407;BME280;57821;52.202;0.154;2024-02-26T11:39:52;101193.53;;;11.71;55.89
70407;BME280;57821;52.202;0.154;2024-02-26T11:42:23;101208.25;;;11.53;55.05
70407;BME280;57821;52.202;0.154;2024-02-26T11:44:51;101204.81;;;11.45;54.40
70407;BME280;57821;52.202;0.154;2024-02-26T11:47:20;101200.47;;;11.31;54.50
70407;BME280;57821;52.202;0.154;2024-02-26T11:49:48;101210.00;;;11.21;54.90
70407;BME280;57821;52.202;0.154;2024-02-26T11:52:15;101222.09;;;11.10;54.22
70407;BME280;57821;52.202;0.154;2024-02-26T11:54:56;101212.56;;;11.00;54.64
70407;BME280;57821;52.202;0.154;2024-02-26T12:00:10;101209.97;;;10.94;54.47
70407;BME280;57821;52.202;0.154;2024-02-26T12:02:45;101218.59;;;10.96;55.36
70407;BME280;57821;52.202;0.154;2024-02-26T12:05:16;101216.88;;;10.98;55.78
70407;BME280;57821;52.202;0.154;2024-02-26T12:08:27;101217.75;;;10.98;56.07
70407;BME280;57821;52.202;0.154;2024-02-26T12:10:36;101219.50;;;10.95;55.21
70407;BME280;57821;52.202;0.154;2024-02-26T12:13:05;101223.78;;;10.90;55.23
70407;BME280;57821;52.202;0.154;2024-02-26T12:15:38;101231.53;;;10.79;54.43
70407;BME280;57821;52.202;0.154;2024-02-26T12:18:07;101243.63;;;10.69;54.57
70407;BME280;57821;52.202;0.154;2024-02-26T12:20:37;101247.91;;;10.58;54.83
70407;BME280;57821;52.202;0.154;2024-02-26T12:23:04;101253.03;;;10.49;54.47
70407;BME280;57821;52.202;0.154;2024-02-26T12:25:32;101250.41;;;10.39;54.70
70407;BME280;57821;52.202;0.154;2024-02-26T12:27:59;101248.66;;;10.38;54.78
70407;BME280;57821;52.202;0.154;2024-02-26T12:30:26;101258.19;;;10.40;55.27
70407;BME280;57821;52.202;0.154;2024-02-26T12:33:00;101262.50;;;10.43;55.75
70407;BME280;57821;52.202;0.154;2024-02-26T12:35:28;101260.78;;;10.42;55.01
70407;BME280;57821;52.202;0.154;2024-02-26T12:37:55;101266.84;;;10.41;54.82
70407;BME280;57821;52.202;0.154;2024-02-26T12:40:22;101273.75;;;10.40;55.17
70407;BME280;57821;52.202;0.154;2024-02-26T12:42:49;101270.31;;;10.46;55.91
70407;BME280;57821;52.202;0.154;2024-02-26T12:45:15;101284.16;;;10.49;55.70
70407;BME280;57821;52.202;0.154;2024-02-26T12:47:43;101283.34;;;10.59;55.65
70407;BME280;57821;52.202;0.154;2024-02-26T12:50:12;101281.63;;;10.66;55.53
70407;BME280;57821;52.202;0.154;2024-02-26T12:52:43;101286.81;;;10.66;55.51
70407;BME280;57821;52.202;0.154;2024-02-26T12:55:12;101287.69;;;10.66;55.19
70407;BME280;57821;52.202;0.154;2024-02-26T12:57:41;101282.50;;;10.63;55.92
70407;BME280;57821;52.202;0.154;2024-02-26T13:00:13;101296.34;;;10.65;55.18
70407;BME280;57821;52.202;0.154;2024-02-26T13:02:42;101298.06;;;10.66;55.03